sensor_id;sensor_type;location;lat;lon;timestamp;P1;durP1;ratioP1;P2;durP2;ratioP2
27163;SDS011;14685;50.618;7.024;2023-12-14T00:01:17;10.13;;;4.63;;
27163;SDS011;14685;50.618;7.024;2023-12-14T00:03:45;7.22;;;5.20;;
27163;SDS011;14685;50.618;7.024;2023-12-14T00:06:14;8.00;;;4.75;;
27163;SDS011;14685;50.618;7.024;2023-12-14T00:08:41;8.85;;;5.65;;
27163;SDS011;14685;50.618;7.024;2023-12-14T00:11:09;13.30;;;5.80;;
27163;SDS011;14685;50.618;7.024;2023-12-14T00:13:38;8.73;;;5.63;;
27163;SDS011;14685;50.618;7.024;2023-12-14T00:16:06;8.07;;;5.28;;
27163;SDS011;14685;50.618;7.024;2023-12-14T00:18:34;7.60;;;4.80;;
27163;SDS011;14685;50.618;7.024;2023-12-14T00:21:01;7.15;;;5.05;;
27163;SDS011;14685;50.618;7.024;2023-12-14T00:23:30;8.00;;;4.88;;
27163;SDS011;14685;50.618;7.024;2023-12-14T00:25:57;9.55;;;5.20;;
27163;SDS011;14685;50.618;7.024;2023-12-14T00:28:25;7.70;;;5.10;;
27163;SDS011;14685;50.618;7.024;2023-12-14T00:30:56;9.65;;;5.45;;
27163;SDS011;14685;50.618;7.024;2023-12-14T00:33:23;7.93;;;5.97;;
27163;SDS011;14685;50.618;7.024;2023-12-14T00:35:50;10.98;;;6.20;;
27163;SDS011;14685;50.618;7.024;2023-12-14T00:38:18;11.05;;;6.32;;
27163;SDS011;14685;50.618;7.024;2023-12-14T00:40:45;11.82;;;6.07;;
27163;SDS011;14685;50.618;7.024;2023-12-14T00:43:12;11.80;;;7.60;;
27163;SDS011;14685;50.618;7.024;2023-12-14T00:45:39;12.95;;;7.72;;
27163;SDS011;14685;50.618;7.024;2023-12-14T00:48:08;17.80;;;7.43;;
27163;SDS011;14685;50.618;7.024;2023-12-14T00:50:37;20.23;;;8.25;;
27163;SDS011;14685;50.618;7.024;2023-12-14T00:53:06;16.88;;;8.40;;
27163;SDS011;14685;50.618;7.024;2023-12-14T00:55:33;17.92;;;7.82;;
27163;SDS011;14685;50.618;7.024;2023-12-14T00:58:00;14.38;;;7.10;;
27163;SDS011;14685;50.618;7.024;2023-12-14T01:00:27;13.05;;;6.70;;
27163;SDS011;14685;50.618;7.024;2023-12-14T01:02:57;10.73;;;7.13;;
27163;SDS011;14685;50.618;7.024;2023-12-14T01:05:24;14.77;;;7.43;;
27163;SDS011;14685;50.618;7.024;2023-12-14T01:07:51;10.25;;;7.20;;
27163;SDS011;14685;50.618;7.024;2023-12-14T01:10:19;10.45;;;6.72;;
27163;SDS011;14685;50.618;7.024;2023-12-14T01:12:46;12.98;;;7.45;;
27163;SDS011;14685;50.618;7.024;2023-12-14T01:15:12;15.38;;;7.50;;
27163;SDS011;14685;50.618;7.024;2023-12-14T01:17:39;13.23;;;7.25;;
27163;SDS011;14685;50.618;7.024;2023-12-14T01:20:08;12.85;;;8.98;;
27163;SDS011;14685;50.618;7.024;2023-12-14T01:22:36;15.73;;;9.18;;
27163;SDS011;14685;50.618;7.024;2023-12-14T01:25:03;16.67;;;9.50;;
27163;SDS011;14685;50.618;7.024;2023-12-14T01:27:31;21.73;;;11.05;;
27163;SDS011;14685;50.618;7.024;2023-12-14T01:29:58;26.33;;;12.93;;
27163;SDS011;14685;50.618;7.024;2023-12-14T01:32:27;25.65;;;11.32;;
27163;SDS011;14685;50.618;7.024;2023-12-14T01:34:55;31.15;;;12.93;;
27163;SDS011;14685;50.618;7.024;2023-12-14T01:37:22;25.45;;;12.75;;
27163;SDS011;14685;50.618;7.024;2023-12-14T01:39:49;24.63;;;13.00;;
27163;SDS011;14685;50.618;7.024;2023-12-14T01:42:16;27.20;;;13.40;;
27163;SDS011;14685;50.618;7.024;2023-12-14T01:44:43;32.33;;;15.32;;
27163;SDS011;14685;50.618;7.024;2023-12-14T01:47:11;31.25;;;15.30;;
27163;SDS011;14685;50.618;7.024;2023-12-14T01:49:38;31.02;;;15.57;;
27163;SDS011;14685;50.618;7.024;2023-12-14T01:52:07;30.55;;;16.38;;
27163;SDS011;14685;50.618;7.024;2023-12-14T01:54:34;34.45;;;17.73;;
27163;SDS011;14685;50.618;7.024;2023-12-14T01:57:01;36.65;;;16.90;;
27163;SDS011;14685;50.618;7.024;2023-12-14T01:59:29;33.25;;;18.55;;
27163;SDS011;14685;50.618;7.024;2023-12-14T02:04:31;42.78;;;20.27;;
27163;SDS011;14685;50.618;7.024;2023-12-14T02:06:59;40.38;;;18.40;;
27163;SDS011;14685;50.618;7.024;2023-12-14T02:09:27;45.10;;;19.63;;
27163;SDS011;14685;50.618;7.024;2023-12-14T02:11:57;42.00;;;21.23;;
27163;SDS011;14685;50.618;7.024;2023-12-14T02:14:24;47.25;;;22.05;;
27163;SDS011;14685;50.618;7.024;2023-12-14T02:16:51;43.60;;;22.38;;
27163;SDS011;14685;50.618;7.024;2023-12-14T02:19:18;44.53;;;21.10;;
27163;SDS011;14685;50.618;7.024;2023-12-14T02:21:45;51.47;;;24.25;;
27163;SDS011;14685;50.618;7.024;2023-12-14T02:24:15;50.72;;;23.50;;
27163;SDS011;14685;50.618;7.024;2023-12-14T02:26:44;55.78;;;26.73;;
27163;SDS011;14685;50.618;7.024;2023-12-14T02:29:28;52.15;;;25.38;;
27163;SDS011;14685;50.618;7.024;2023-12-14T02:31:55;52.40;;;25.50;;
27163;SDS011;14685;50.618;7.024;2023-12-14T02:34:22;58.85;;;25.65;;
27163;SDS011;14685;50.618;7.024;2023-12-14T02:36:54;64.10;;;27.92;;
27163;SDS011;14685;50.618;7.024;2023-12-14T02:39:21;54.05;;;25.30;;
27163;SDS011;14685;50.618;7.024;2023-12-14T02:41:48;55.45;;;26.17;;
27163;SDS011;14685;50.618;7.024;2023-12-14T02:44:16;52.63;;;27.13;;
27163;SDS011;14685;50.618;7.024;2023-12-14T02:46:43;56.85;;;25.50;;
27163;SDS011;14685;50.618;7.024;2023-12-14T02:49:09;53.97;;;26.33;;
27163;SDS011;14685;50.618;7.024;2023-12-14T02:51:36;58.88;;;28.40;;
27163;SDS011;14685;50.618;7.024;2023-12-14T02:54:03;57.55;;;27.48;;
27163;SDS011;14685;50.618;7.024;2023-12-14T02:56:30;60.90;;;29.67;;
27163;SDS011;14685;50.618;7.024;2023-12-14T02:58:57;59.40;;;29.77;;
27163;SDS011;14685;50.618;7.024;2023-12-14T03:01:24;57.65;;;27.42;;
27163;SDS011;14685;50.618;7.024;2023-12-14T03:03:51;63.75;;;27.88;;
27163;SDS011;14685;50.618;7.024;2023-12-14T03:06:20;52.75;;;25.25;;
27163;SDS011;14685;50.618;7.024;2023-12-14T03:08:47;55.45;;;25.90;;
27163;SDS011;14685;50.618;7.024;2023-12-14T03:11:21;55.03;;;26.00;;
27163;SDS011;14685;50.618;7.024;2023-12-14T03:13:49;51.35;;;24.88;;
27163;SDS011;14685;50.618;7.024;2023-12-14T03:16:18;48.67;;;24.33;;
27163;SDS011;14685;50.618;7.024;2023-12-14T03:18:47;49.80;;;25.02;;
27163;SDS011;14685;50.618;7.024;2023-12-14T03:21:20;54.13;;;24.52;;
27163;SDS011;14685;50.618;7.024;2023-12-14T03:23:47;44.65;;;23.67;;
27163;SDS011;14685;50.618;7.024;2023-12-14T03:26:15;47.42;;;25.40;;
27163;SDS011;14685;50.618;7.024;2023-12-14T03:28:42;44.90;;;23.38;;
27163;SDS011;14685;50.618;7.024;2023-12-14T03:31:10;47.03;;;23.42;;
27163;SDS011;14685;50.618;7.024;2023-12-14T03:33:39;50.35;;;24.17;;
27163;SDS011;14685;50.618;7.024;2023-12-14T03:36:07;53.72;;;26.13;;
27163;SDS011;14685;50.618;7.024;2023-12-14T03:38:35;46.00;;;24.13;;
27163;SDS011;14685;50.618;7.024;2023-12-14T03:41:02;50.28;;;25.88;;
27163;SDS011;14685;50.618;7.024;2023-12-14T03:43:29;52.03;;;25.67;;
27163;SDS011;14685;50.618;7.024;2023-12-14T03:45:56;47.45;;;24.55;;
27163;SDS011;14685;50.618;7.024;2023-12-14T03:48:23;43.53;;;24.58;;
27163;SDS011;14685;50.618;7.024;2023-12-14T03:50:50;42.72;;;23.67;;
27163;SDS011;14685;50.618;7.024;2023-12-14T03:53:17;41.50;;;24.00;;
27163;SDS011;14685;50.618;7.024;2023-12-14T03:55:44;45.10;;;22.15;;
27163;SDS011;14685;50.618;7.024;2023-12-14T03:58:14;44.63;;;23.10;;
27163;SDS011;14685;50.618;7.024;2023-12-14T04:00:42;47.92;;;23.27;;
27163;SDS011;14685;50.618;7.024;2023-12-14T04:03:09;44.45;;;24.65;;
27163;SDS011;14685;50.618;7.024;2023-12-14T04:05:38;48.28;;;23.83;;
27163;SDS011;14685;50.618;7.024;2023-12-14T04:08:06;48.53;;;25.55;;
27163;SDS011;14685;50.618;7.024;2023-12-14T04:10:33;47.63;;;24.58;;
27163;SDS011;14685;50.618;7.024;2023-12-14T04:13:01;41.28;;;21.35;;
27163;SDS011;14685;50.618;7.024;2023-12-14T04:15:28;45.97;;;22.27;;
27163;SDS011;14685;50.618;7.024;2023-12-14T04:17:56;38.33;;;20.13;;
27163;SDS011;14685;50.618;7.024;2023-12-14T04:20:25;39.80;;;21.95;;
27163;SDS011;14685;50.618;7.024;2023-12-14T04:22:53;35.55;;;21.13;;
27163;SDS011;14685;50.618;7.024;2023-12-14T04:25:21;44.17;;;24.75;;
27163;SDS011;14685;50.618;7.024;2023-12-14T04:27:47;47.17;;;26.60;;
27163;SDS011;14685;50.618;7.024;2023-12-14T04:30:16;50.35;;;26.80;;
27163;SDS011;14685;50.618;7.024;2023-12-14T04:32:43;51.70;;;28.77;;
27163;SDS011;14685;50.618;7.024;2023-12-14T04:35:13;52.33;;;28.45;;
27163;SDS011;14685;50.618;7.024;2023-12-14T04:37:40;53.65;;;29.00;;
27163;SDS011;14685;50.618;7.024;2023-12-14T04:40:07;49.47;;;27.70;;
27163;SDS011;14685;50.618;7.024;2023-12-14T04:42:35;52.97;;;28.15;;
27163;SDS011;14685;50.618;7.024;2023-12-14T04:45:04;49.58;;;27.30;;
27163;SDS011;14685;50.618;7.024;2023-12-14T04:47:31;51.38;;;28.25;;
27163;SDS011;14685;50.618;7.024;2023-12-14T04:49:58;50.22;;;27.17;;
27163;SDS011;14685;50.618;7.024;2023-12-14T04:52:27;49.08;;;27.05;;
27163;SDS011;14685;50.618;7.024;2023-12-14T04:54:55;54.50;;;27.85;;
27163;SDS011;14685;50.618;7.024;2023-12-14T04:57:22;44.60;;;25.77;;
27163;SDS011;14685;50.618;7.024;2023-12-14T04:59:50;49.25;;;26.40;;
27163;SDS011;14685;50.618;7.024;2023-12-14T05:02:18;41.25;;;23.95;;
27163;SDS011;14685;50.618;7.024;2023-12-14T05:04:45;43.08;;;24.63;;
27163;SDS011;14685;50.618;7.024;2023-12-14T05:07:12;41.53;;;25.00;;
27163;SDS011;14685;50.618;7.024;2023-12-14T05:09:39;44.50;;;24.55;;
27163;SDS011;14685;50.618;7.024;2023-12-14T05:12:06;38.50;;;23.13;;
27163;SDS011;14685;50.618;7.024;2023-12-14T05:14:33;37.88;;;22.98;;
27163;SDS011;14685;50.618;7.024;2023-12-14T05:17:00;39.17;;;23.88;;
27163;SDS011;14685;50.618;7.024;2023-12-14T05:19:27;41.08;;;23.58;;
27163;SDS011;14685;50.618;7.024;2023-12-14T05:21:54;39.42;;;23.45;;
27163;SDS011;14685;50.618;7.024;2023-12-14T05:24:22;36.97;;;21.65;;
27163;SDS011;14685;50.618;7.024;2023-12-14T05:26:49;43.65;;;24.40;;
27163;SDS011;14685;50.618;7.024;2023-12-14T05:29:16;41.08;;;24.25;;
27163;SDS011;14685;50.618;7.024;2023-12-14T05:31:43;38.47;;;22.83;;
27163;SDS011;14685;50.618;7.024;2023-12-14T05:34:10;40.10;;;23.70;;
27163;SDS011;14685;50.618;7.024;2023-12-14T05:36:39;40.13;;;23.40;;
27163;SDS011;14685;50.618;7.024;2023-12-14T05:39:08;44.40;;;25.00;;
27163;SDS011;14685;50.618;7.024;2023-12-14T05:41:39;41.08;;;23.55;;
27163;SDS011;14685;50.618;7.024;2023-12-14T05:44:16;47.78;;;26.17;;
27163;SDS011;14685;50.618;7.024;2023-12-14T05:46:44;47.92;;;26.83;;
27163;SDS011;14685;50.618;7.024;2023-12-14T05:49:16;45.55;;;24.98;;
27163;SDS011;14685;50.618;7.024;2023-12-14T05:51:44;47.17;;;25.92;;
27163;SDS011;14685;50.618;7.024;2023-12-14T05:54:11;45.30;;;24.50;;
27163;SDS011;14685;50.618;7.024;2023-12-14T05:56:38;49.28;;;25.63;;
27163;SDS011;14685;50.618;7.024;2023-12-14T05:59:09;43.40;;;25.27;;
27163;SDS011;14685;50.618;7.024;2023-12-14T06:01:37;45.70;;;25.00;;
27163;SDS011;14685;50.618;7.024;2023-12-14T06:04:04;46.35;;;25.55;;
27163;SDS011;14685;50.618;7.024;2023-12-14T06:06:31;39.08;;;22.75;;
27163;SDS011;14685;50.618;7.024;2023-12-14T06:08:58;42.25;;;23.33;;
27163;SDS011;14685;50.618;7.024;2023-12-14T06:11:25;40.83;;;23.17;;
27163;SDS011;14685;50.618;7.024;2023-12-14T06:13:52;50.03;;;26.02;;
27163;SDS011;14685;50.618;7.024;2023-12-14T06:16:20;45.53;;;25.98;;
27163;SDS011;14685;50.618;7.024;2023-12-14T06:18:47;45.83;;;24.65;;
27163;SDS011;14685;50.618;7.024;2023-12-14T06:21:15;38.72;;;22.05;;
27163;SDS011;14685;50.618;7.024;2023-12-14T06:23:42;39.97;;;22.48;;
27163;SDS011;14685;50.618;7.024;2023-12-14T06:26:09;38.60;;;21.63;;
27163;SDS011;14685;50.618;7.024;2023-12-14T06:28:36;37.75;;;21.45;;
27163;SDS011;14685;50.618;7.024;2023-12-14T06:31:04;36.25;;;19.75;;
27163;SDS011;14685;50.618;7.024;2023-12-14T06:33:32;33.42;;;18.95;;
27163;SDS011;14685;50.618;7.024;2023-12-14T06:36:02;34.65;;;18.80;;
27163;SDS011;14685;50.618;7.024;2023-12-14T06:38:31;28.85;;;17.88;;
27163;SDS011;14685;50.618;7.024;2023-12-14T06:40:58;29.75;;;19.73;;
27163;SDS011;14685;50.618;7.024;2023-12-14T06:43:25;33.40;;;19.25;;
27163;SDS011;14685;50.618;7.024;2023-12-14T06:45:53;35.40;;;19.98;;
27163;SDS011;14685;50.618;7.024;2023-12-14T06:48:20;34.13;;;20.17;;
27163;SDS011;14685;50.618;7.024;2023-12-14T06:50:47;32.05;;;19.33;;
27163;SDS011;14685;50.618;7.024;2023-12-14T06:53:14;35.45;;;20.13;;
27163;SDS011;14685;50.618;7.024;2023-12-14T06:55:42;36.55;;;21.70;;
27163;SDS011;14685;50.618;7.024;2023-12-14T06:58:10;41.00;;;22.60;;
27163;SDS011;14685;50.618;7.024;2023-12-14T07:00:38;38.25;;;21.98;;
27163;SDS011;14685;50.618;7.024;2023-12-14T07:03:05;40.97;;;22.90;;
27163;SDS011;14685;50.618;7.024;2023-12-14T07:05:32;36.05;;;20.80;;
27163;SDS011;14685;50.618;7.024;2023-12-14T07:08:01;36.92;;;21.30;;
27163;SDS011;14685;50.618;7.024;2023-12-14T07:10:28;38.13;;;21.58;;
27163;SDS011;14685;50.618;7.024;2023-12-14T07:12:55;38.72;;;20.85;;
27163;SDS011;14685;50.618;7.024;2023-12-14T07:15:23;34.80;;;19.60;;
27163;SDS011;14685;50.618;7.024;2023-12-14T07:17:50;36.15;;;21.15;;
27163;SDS011;14685;50.618;7.024;2023-12-14T07:20:17;38.83;;;21.88;;
27163;SDS011;14685;50.618;7.024;2023-12-14T07:22:45;35.38;;;21.20;;
27163;SDS011;14685;50.618;7.024;2023-12-14T07:25:13;29.48;;;18.05;;
27163;SDS011;14685;50.618;7.024;2023-12-14T07:27:40;31.63;;;17.73;;
27163;SDS011;14685;50.618;7.024;2023-12-14T07:30:07;31.75;;;17.88;;
27163;SDS011;14685;50.618;7.024;2023-12-14T07:32:35;30.98;;;18.00;;
27163;SDS011;14685;50.618;7.024;2023-12-14T07:35:03;29.60;;;17.77;;
27163;SDS011;14685;50.618;7.024;2023-12-14T07:37:30;31.13;;;18.63;;
27163;SDS011;14685;50.618;7.024;2023-12-14T07:39:57;28.60;;;16.30;;
27163;SDS011;14685;50.618;7.024;2023-12-14T07:42:24;28.98;;;15.73;;
27163;SDS011;14685;50.618;7.024;2023-12-14T07:44:52;28.85;;;15.57;;
27163;SDS011;14685;50.618;7.024;2023-12-14T07:47:21;30.50;;;16.65;;
27163;SDS011;14685;50.618;7.024;2023-12-14T07:49:48;28.75;;;15.52;;
27163;SDS011;14685;50.618;7.024;2023-12-14T07:52:14;27.30;;;15.32;;
27163;SDS011;14685;50.618;7.024;2023-12-14T07:54:41;31.30;;;17.63;;
27163;SDS011;14685;50.618;7.024;2023-12-14T07:57:09;27.27;;;15.65;;
27163;SDS011;14685;50.618;7.024;2023-12-14T07:59:35;25.50;;;15.15;;
27163;SDS011;14685;50.618;7.024;2023-12-14T08:02:03;23.45;;;13.15;;
27163;SDS011;14685;50.618;7.024;2023-12-14T08:04:30;30.73;;;15.73;;
27163;SDS011;14685;50.618;7.024;2023-12-14T08:06:58;31.63;;;16.38;;
27163;SDS011;14685;50.618;7.024;2023-12-14T08:09:25;29.63;;;15.63;;
27163;SDS011;14685;50.618;7.024;2023-12-14T08:11:53;27.38;;;14.98;;
27163;SDS011;14685;50.618;7.024;2023-12-14T08:14:19;27.58;;;16.02;;
27163;SDS011;14685;50.618;7.024;2023-12-14T08:16:47;28.70;;;14.05;;
27163;SDS011;14685;50.618;7.024;2023-12-14T08:19:14;26.80;;;14.25;;
27163;SDS011;14685;50.618;7.024;2023-12-14T08:21:40;25.60;;;14.25;;
27163;SDS011;14685;50.618;7.024;2023-12-14T08:24:09;23.50;;;13.50;;
27163;SDS011;14685;50.618;7.024;2023-12-14T08:26:36;25.88;;;13.50;;
27163;SDS011;14685;50.618;7.024;2023-12-14T08:29:03;21.00;;;13.27;;
27163;SDS011;14685;50.618;7.024;2023-12-14T08:31:31;23.17;;;12.73;;
27163;SDS011;14685;50.618;7.024;2023-12-14T08:33:58;25.33;;;13.90;;
27163;SDS011;14685;50.618;7.024;2023-12-14T08:36:26;20.13;;;12.95;;
27163;SDS011;14685;50.618;7.024;2023-12-14T08:38:53;22.23;;;12.18;;
27163;SDS011;14685;50.618;7.024;2023-12-14T08:41:20;19.77;;;12.07;;
27163;SDS011;14685;50.618;7.024;2023-12-14T08:43:49;19.80;;;11.65;;
27163;SDS011;14685;50.618;7.024;2023-12-14T08:46:16;22.65;;;13.82;;
27163;SDS011;14685;50.618;7.024;2023-12-14T08:48:44;25.20;;;13.55;;
27163;SDS011;14685;50.618;7.024;2023-12-14T08:51:11;19.52;;;12.10;;
27163;SDS011;14685;50.618;7.024;2023-12-14T08:53:38;22.17;;;13.65;;
27163;SDS011;14685;50.618;7.024;2023-12-14T08:56:05;20.88;;;12.63;;
27163;SDS011;14685;50.618;7.024;2023-12-14T08:58:32;22.35;;;13.43;;
27163;SDS011;14685;50.618;7.024;2023-12-14T09:01:00;22.55;;;12.57;;
27163;SDS011;14685;50.618;7.024;2023-12-14T09:03:30;21.10;;;13.15;;
27163;SDS011;14685;50.618;7.024;2023-12-14T09:05:58;21.95;;;13.70;;
27163;SDS011;14685;50.618;7.024;2023-12-14T09:08:25;21.52;;;13.30;;
27163;SDS011;14685;50.618;7.024;2023-12-14T09:10:52;21.17;;;13.32;;
27163;SDS011;14685;50.618;7.024;2023-12-14T09:13:19;26.92;;;14.73;;
27163;SDS011;14685;50.618;7.024;2023-12-14T09:15:47;26.60;;;15.93;;
27163;SDS011;14685;50.618;7.024;2023-12-14T09:18:14;24.60;;;15.85;;
27163;SDS011;14685;50.618;7.024;2023-12-14T09:20:41;25.92;;;17.15;;
27163;SDS011;14685;50.618;7.024;2023-12-14T09:23:09;24.98;;;15.98;;
27163;SDS011;14685;50.618;7.024;2023-12-14T09:25:36;21.77;;;13.40;;
27163;SDS011;14685;50.618;7.024;2023-12-14T09:28:03;20.35;;;12.43;;
27163;SDS011;14685;50.618;7.024;2023-12-14T09:30:31;18.13;;;11.02;;
27163;SDS011;14685;50.618;7.024;2023-12-14T09:33:01;20.75;;;12.20;;
27163;SDS011;14685;50.618;7.024;2023-12-14T09:35:28;21.05;;;11.00;;
27163;SDS011;14685;50.618;7.024;2023-12-14T09:37:56;19.10;;;10.88;;
27163;SDS011;14685;50.618;7.024;2023-12-14T09:40:23;21.25;;;11.23;;
27163;SDS011;14685;50.618;7.024;2023-12-14T09:42:54;18.23;;;10.07;;
27163;SDS011;14685;50.618;7.024;2023-12-14T09:45:29;15.13;;;9.23;;
27163;SDS011;14685;50.618;7.024;2023-12-14T09:47:56;13.55;;;8.95;;
27163;SDS011;14685;50.618;7.024;2023-12-14T09:50:26;14.65;;;10.30;;
27163;SDS011;14685;50.618;7.024;2023-12-14T09:52:53;18.92;;;11.65;;
27163;SDS011;14685;50.618;7.024;2023-12-14T09:55:20;15.48;;;10.35;;
27163;SDS011;14685;50.618;7.024;2023-12-14T09:57:47;14.07;;;9.00;;
27163;SDS011;14685;50.618;7.024;2023-12-14T10:00:16;16.15;;;8.60;;
27163;SDS011;14685;50.618;7.024;2023-12-14T10:05:57;15.75;;;9.30;;
27163;SDS011;14685;50.618;7.024;2023-12-14T10:08:25;16.10;;;9.35;;
27163;SDS011;14685;50.618;7.024;2023-12-14T10:10:54;14.27;;;9.30;;
27163;SDS011;14685;50.618;7.024;2023-12-14T10:13:35;15.07;;;9.32;;
27163;SDS011;14685;50.618;7.024;2023-12-14T10:16:04;16.70;;;9.93;;
27163;SDS011;14685;50.618;7.024;2023-12-14T10:18:32;17.45;;;10.15;;
27163;SDS011;14685;50.618;7.024;2023-12-14T10:21:01;20.15;;;11.73;;
27163;SDS011;14685;50.618;7.024;2023-12-14T10:23:28;24.15;;;13.35;;
27163;SDS011;14685;50.618;7.024;2023-12-14T10:25:56;20.77;;;12.45;;
27163;SDS011;14685;50.618;7.024;2023-12-14T10:28:26;19.13;;;13.15;;
27163;SDS011;14685;50.618;7.024;2023-12-14T10:30:53;23.23;;;13.63;;
27163;SDS011;14685;50.618;7.024;2023-12-14T10:33:20;25.20;;;12.48;;
27163;SDS011;14685;50.618;7.024;2023-12-14T10:35:48;19.05;;;11.73;;
27163;SDS011;14685;50.618;7.024;2023-12-14T10:38:15;22.88;;;12.75;;
27163;SDS011;14685;50.618;7.024;2023-12-14T10:40:45;21.17;;;13.55;;
27163;SDS011;14685;50.618;7.024;2023-12-14T10:43:13;23.02;;;13.35;;
27163;SDS011;14685;50.618;7.024;2023-12-14T10:45:46;25.15;;;15.32;;
27163;SDS011;14685;50.618;7.024;2023-12-14T10:48:18;25.65;;;15.00;;
27163;SDS011;14685;50.618;7.024;2023-12-14T10:50:47;24.52;;;14.95;;
27163;SDS011;14685;50.618;7.024;2023-12-14T10:53:17;23.23;;;13.18;;
27163;SDS011;14685;50.618;7.024;2023-12-14T10:55:45;24.98;;;13.38;;
27163;SDS011;14685;50.618;7.024;2023-12-14T10:58:16;26.50;;;14.20;;
27163;SDS011;14685;50.618;7.024;2023-12-14T11:00:58;23.88;;;14.05;;
27163;SDS011;14685;50.618;7.024;2023-12-14T11:03:32;25.30;;;15.02;;
27163;SDS011;14685;50.618;7.024;2023-12-14T11:06:00;23.42;;;13.75;;
27163;SDS011;14685;50.618;7.024;2023-12-14T11:08:40;23.20;;;13.48;;
27163;SDS011;14685;50.618;7.024;2023-12-14T11:11:09;22.42;;;13.07;;
27163;SDS011;14685;50.618;7.024;2023-12-14T11:13:39;24.38;;;14.25;;
27163;SDS011;14685;50.618;7.024;2023-12-14T11:16:07;24.40;;;13.02;;
27163;SDS011;14685;50.618;7.024;2023-12-14T11:18:34;28.50;;;15.65;;
27163;SDS011;14685;50.618;7.024;2023-12-14T11:21:02;27.13;;;14.65;;
27163;SDS011;14685;50.618;7.024;2023-12-14T11:23:33;25.35;;;15.27;;
27163;SDS011;14685;50.618;7.024;2023-12-14T11:26:04;24.40;;;14.88;;
27163;SDS011;14685;50.618;7.024;2023-12-14T11:28:38;24.30;;;14.98;;
27163;SDS011;14685;50.618;7.024;2023-12-14T11:31:10;24.52;;;14.20;;
27163;SDS011;14685;50.618;7.024;2023-12-14T11:37:16;20.90;;;12.88;;
27163;SDS011;14685;50.618;7.024;2023-12-14T11:39:43;22.42;;;13.90;;
27163;SDS011;14685;50.618;7.024;2023-12-14T11:42:11;19.67;;;12.98;;
27163;SDS011;14685;50.618;7.024;2023-12-14T11:44:43;22.55;;;13.00;;
27163;SDS011;14685;50.618;7.024;2023-12-14T11:47:10;18.20;;;11.38;;
27163;SDS011;14685;50.618;7.024;2023-12-14T11:49:37;15.20;;;10.60;;
27163;SDS011;14685;50.618;7.024;2023-12-14T11:52:04;18.48;;;11.30;;
27163;SDS011;14685;50.618;7.024;2023-12-14T11:54:31;17.05;;;11.75;;
27163;SDS011;14685;50.618;7.024;2023-12-14T11:57:00;18.33;;;11.88;;
27163;SDS011;14685;50.618;7.024;2023-12-14T11:59:28;19.13;;;11.57;;
27163;SDS011;14685;50.618;7.024;2023-12-14T12:01:58;17.50;;;11.63;;
27163;SDS011;14685;50.618;7.024;2023-12-14T12:04:26;15.98;;;10.57;;
27163;SDS011;14685;50.618;7.024;2023-12-14T12:07:00;18.45;;;11.13;;
27163;SDS011;14685;50.618;7.024;2023-12-14T12:09:36;16.25;;;10.60;;
27163;SDS011;14685;50.618;7.024;2023-12-14T12:12:06;14.43;;;9.23;;
27163;SDS011;14685;50.618;7.024;2023-12-14T12:14:54;21.33;;;9.48;;
27163;SDS011;14685;50.618;7.024;2023-12-14T12:17:21;13.05;;;9.10;;
27163;SDS011;14685;50.618;7.024;2023-12-14T12:19:49;13.75;;;9.15;;
27163;SDS011;14685;50.618;7.024;2023-12-14T12:22:16;15.98;;;10.38;;
27163;SDS011;14685;50.618;7.024;2023-12-14T12:24:44;13.93;;;9.88;;
27163;SDS011;14685;50.618;7.024;2023-12-14T12:27:14;15.30;;;10.45;;
27163;SDS011;14685;50.618;7.024;2023-12-14T12:29:41;16.83;;;11.57;;
27163;SDS011;14685;50.618;7.024;2023-12-14T12:32:09;15.15;;;10.70;;
27163;SDS011;14685;50.618;7.024;2023-12-14T12:34:36;18.67;;;11.30;;
27163;SDS011;14685;50.618;7.024;2023-12-14T12:37:04;19.00;;;11.77;;
27163;SDS011;14685;50.618;7.024;2023-12-14T12:39:31;15.77;;;11.20;;
27163;SDS011;14685;50.618;7.024;2023-12-14T12:41:58;16.80;;;11.05;;
27163;SDS011;14685;50.618;7.024;2023-12-14T12:44:26;18.23;;;12.15;;
27163;SDS011;14685;50.618;7.024;2023-12-14T12:46:53;17.13;;;11.88;;
27163;SDS011;14685;50.618;7.024;2023-12-14T12:49:36;20.20;;;12.50;;
27163;SDS011;14685;50.618;7.024;2023-12-14T12:52:03;18.63;;;12.77;;
27163;SDS011;14685;50.618;7.024;2023-12-14T12:54:32;16.50;;;11.98;;
27163;SDS011;14685;50.618;7.024;2023-12-14T12:56:59;18.10;;;11.75;;
27163;SDS011;14685;50.618;7.024;2023-12-14T12:59:26;18.52;;;12.43;;
27163;SDS011;14685;50.618;7.024;2023-12-14T13:01:55;19.35;;;13.48;;
27163;SDS011;14685;50.618;7.024;2023-12-14T13:04:22;18.55;;;12.68;;
27163;SDS011;14685;50.618;7.024;2023-12-14T13:06:52;17.10;;;12.32;;
27163;SDS011;14685;50.618;7.024;2023-12-14T13:09:19;19.30;;;13.10;;
27163;SDS011;14685;50.618;7.024;2023-12-14T13:11:46;20.42;;;13.30;;
27163;SDS011;14685;50.618;7.024;2023-12-14T13:14:26;20.40;;;13.15;;
27163;SDS011;14685;50.618;7.024;2023-12-14T13:16:53;17.98;;;12.00;;
27163;SDS011;14685;50.618;7.024;2023-12-14T13:19:21;17.33;;;12.57;;
27163;SDS011;14685;50.618;7.024;2023-12-14T13:21:50;17.85;;;11.88;;
27163;SDS011;14685;50.618;7.024;2023-12-14T13:24:17;19.33;;;13.30;;
27163;SDS011;14685;50.618;7.024;2023-12-14T13:26:46;20.73;;;14.38;;
27163;SDS011;14685;50.618;7.024;2023-12-14T13:29:12;23.23;;;14.73;;
27163;SDS011;14685;50.618;7.024;2023-12-14T13:31:39;19.10;;;12.85;;
27163;SDS011;14685;50.618;7.024;2023-12-14T13:34:06;16.58;;;11.05;;
27163;SDS011;14685;50.618;7.024;2023-12-14T13:36:33;17.38;;;12.23;;
27163;SDS011;14685;50.618;7.024;2023-12-14T13:39:01;17.20;;;11.18;;
27163;SDS011;14685;50.618;7.024;2023-12-14T13:41:29;19.30;;;12.52;;
27163;SDS011;14685;50.618;7.024;2023-12-14T13:44:15;19.98;;;12.43;;
27163;SDS011;14685;50.618;7.024;2023-12-14T13:46:42;18.27;;;12.43;;
27163;SDS011;14685;50.618;7.024;2023-12-14T13:49:14;16.83;;;11.85;;
27163;SDS011;14685;50.618;7.024;2023-12-14T13:51:43;18.48;;;13.27;;
27163;SDS011;14685;50.618;7.024;2023-12-14T13:54:09;18.65;;;12.95;;
27163;SDS011;14685;50.618;7.024;2023-12-14T13:56:37;18.10;;;11.75;;
27163;SDS011;14685;50.618;7.024;2023-12-14T13:59:04;18.52;;;12.30;;
27163;SDS011;14685;50.618;7.024;2023-12-14T14:01:32;19.17;;;12.88;;
27163;SDS011;14685;50.618;7.024;2023-12-14T14:04:02;18.77;;;12.15;;
27163;SDS011;14685;50.618;7.024;2023-12-14T14:06:29;17.55;;;11.68;;
27163;SDS011;14685;50.618;7.024;2023-12-14T14:08:56;18.63;;;12.43;;
27163;SDS011;14685;50.618;7.024;2023-12-14T14:11:23;17.80;;;11.70;;
27163;SDS011;14685;50.618;7.024;2023-12-14T14:13:50;18.08;;;11.93;;
27163;SDS011;14685;50.618;7.024;2023-12-14T14:16:17;20.95;;;13.23;;
27163;SDS011;14685;50.618;7.024;2023-12-14T14:18:50;21.70;;;12.40;;
27163;SDS011;14685;50.618;7.024;2023-12-14T14:21:21;20.30;;;12.52;;
27163;SDS011;14685;50.618;7.024;2023-12-14T14:23:47;21.08;;;12.82;;
27163;SDS011;14685;50.618;7.024;2023-12-14T14:26:15;16.27;;;11.52;;
27163;SDS011;14685;50.618;7.024;2023-12-14T14:28:42;17.60;;;11.63;;
27163;SDS011;14685;50.618;7.024;2023-12-14T14:31:10;16.75;;;11.48;;
27163;SDS011;14685;50.618;7.024;2023-12-14T14:33:37;18.48;;;12.15;;
27163;SDS011;14685;50.618;7.024;2023-12-14T14:36:04;17.05;;;11.90;;
27163;SDS011;14685;50.618;7.024;2023-12-14T14:38:31;16.52;;;11.13;;